Mildland, Texas
Current Conditions -  °F | °C
As of 9:56 PM on Friday 24 Oct 2014 (Local Time) from KAQV Reporting Station
Haze Haze  
Wind Chill: 55°   Ceiling: Unl
Heat Index: 55°   Visibility: 6mi
Dew Point: 52°   Wind: 0mph
Humidity: 89%   Direction: NA
Pressure: 30.13"   Gusts: NA
Location:  31.4918°N, 93.8786°W
Report Text: KAQV 250256Z AUTO 00000KT 6SM BR CLR 13/11 A3013 RMK AO2 SLP203 T01280111 53012
Loading
Personal Weather Stations






























Interactive Weather Map
Tropical Storm Tracking
New forecast layout! Learn more

10-Day Weather Forecast

Advertisements
Track Severe Weather on mobile